sensor_id;sensor_type;location;lat;lon;timestamp;P1;durP1;ratioP1;P2;durP2;ratioP2
55007;SDS011;40902;45.116;21.296;2023-05-23T00:01:06;6.53;;;4.82;;
55007;SDS011;40902;45.116;21.296;2023-05-23T00:03:33;6.55;;;4.93;;
55007;SDS011;40902;45.116;21.296;2023-05-23T00:06:00;7.20;;;4.85;;
55007;SDS011;40902;45.116;21.296;2023-05-23T00:08:26;5.70;;;4.63;;
55007;SDS011;40902;45.116;21.296;2023-05-23T00:10:52;8.60;;;4.85;;
55007;SDS011;40902;45.116;21.296;2023-05-23T00:13:18;9.15;;;4.43;;
55007;SDS011;40902;45.116;21.296;2023-05-23T00:15:44;6.63;;;4.55;;
55007;SDS011;40902;45.116;21.296;2023-05-23T00:18:12;7.68;;;4.53;;
55007;SDS011;40902;45.116;21.296;2023-05-23T00:20:39;6.80;;;4.38;;
55007;SDS011;40902;45.116;21.296;2023-05-23T00:23:10;8.52;;;4.10;;
55007;SDS011;40902;45.116;21.296;2023-05-23T00:25:42;5.57;;;4.43;;
55007;SDS011;40902;45.116;21.296;2023-05-23T00:28:12;8.45;;;5.50;;
55007;SDS011;40902;45.116;21.296;2023-05-23T00:30:39;9.30;;;5.70;;
55007;SDS011;40902;45.116;21.296;2023-05-23T00:33:05;6.57;;;5.50;;
55007;SDS011;40902;45.116;21.296;2023-05-23T00:35:31;11.07;;;5.63;;
55007;SDS011;40902;45.116;21.296;2023-05-23T00:37:58;8.20;;;5.70;;
55007;SDS011;40902;45.116;21.296;2023-05-23T00:40:26;7.47;;;5.88;;
55007;SDS011;40902;45.116;21.296;2023-05-23T00:42:52;9.90;;;5.50;;
55007;SDS011;40902;45.116;21.296;2023-05-23T00:45:18;9.52;;;6.30;;
55007;SDS011;40902;45.116;21.296;2023-05-23T00:47:44;11.63;;;6.18;;
55007;SDS011;40902;45.116;21.296;2023-05-23T00:50:12;10.77;;;6.50;;
55007;SDS011;40902;45.116;21.296;2023-05-23T00:52:41;10.23;;;6.38;;
55007;SDS011;40902;45.116;21.296;2023-05-23T00:55:09;10.30;;;6.50;;
55007;SDS011;40902;45.116;21.296;2023-05-23T00:57:35;9.30;;;5.95;;
55007;SDS011;40902;45.116;21.296;2023-05-23T01:00:08;9.77;;;6.68;;
55007;SDS011;40902;45.116;21.296;2023-05-23T01:02:36;8.85;;;6.63;;
55007;SDS011;40902;45.116;21.296;2023-05-23T01:05:05;13.93;;;7.07;;
55007;SDS011;40902;45.116;21.296;2023-05-23T01:07:31;12.10;;;6.80;;
55007;SDS011;40902;45.116;21.296;2023-05-23T01:09:57;11.82;;;6.38;;
55007;SDS011;40902;45.116;21.296;2023-05-23T01:17:25;7.72;;;6.10;;
55007;SDS011;40902;45.116;21.296;2023-05-23T01:22:48;11.00;;;6.75;;
55007;SDS011;40902;45.116;21.296;2023-05-23T01:30:10;14.18;;;8.50;;
55007;SDS011;40902;45.116;21.296;2023-05-23T01:32:37;15.35;;;7.28;;
55007;SDS011;40902;45.116;21.296;2023-05-23T01:35:04;13.05;;;7.75;;
55007;SDS011;40902;45.116;21.296;2023-05-23T01:37:31;12.50;;;7.97;;
55007;SDS011;40902;45.116;21.296;2023-05-23T01:39:57;11.57;;;7.63;;
55007;SDS011;40902;45.116;21.296;2023-05-23T01:42:23;13.35;;;7.78;;
55007;SDS011;40902;45.116;21.296;2023-05-23T01:44:50;14.07;;;7.78;;
55007;SDS011;40902;45.116;21.296;2023-05-23T01:47:16;13.80;;;8.30;;
55007;SDS011;40902;45.116;21.296;2023-05-23T01:49:42;14.02;;;7.32;;
55007;SDS011;40902;45.116;21.296;2023-05-23T01:52:10;17.45;;;9.60;;
55007;SDS011;40902;45.116;21.296;2023-05-23T01:54:37;13.38;;;7.75;;
55007;SDS011;40902;45.116;21.296;2023-05-23T01:57:06;12.93;;;7.20;;
55007;SDS011;40902;45.116;21.296;2023-05-23T01:59:32;10.00;;;7.03;;
55007;SDS011;40902;45.116;21.296;2023-05-23T02:01:58;14.60;;;7.55;;
55007;SDS011;40902;45.116;21.296;2023-05-23T02:04:26;10.57;;;6.85;;
55007;SDS011;40902;45.116;21.296;2023-05-23T02:06:52;13.05;;;7.38;;
55007;SDS011;40902;45.116;21.296;2023-05-23T02:09:18;11.45;;;7.40;;
55007;SDS011;40902;45.116;21.296;2023-05-23T02:11:45;11.57;;;7.50;;
55007;SDS011;40902;45.116;21.296;2023-05-23T02:14:11;11.02;;;7.07;;
55007;SDS011;40902;45.116;21.296;2023-05-23T02:16:37;12.60;;;7.15;;
55007;SDS011;40902;45.116;21.296;2023-05-23T02:19:03;12.02;;;6.85;;
55007;SDS011;40902;45.116;21.296;2023-05-23T02:21:29;12.02;;;7.32;;
55007;SDS011;40902;45.116;21.296;2023-05-23T02:23:55;14.07;;;7.18;;
55007;SDS011;40902;45.116;21.296;2023-05-23T02:26:21;9.95;;;7.18;;
55007;SDS011;40902;45.116;21.296;2023-05-23T02:28:47;11.80;;;7.20;;
55007;SDS011;40902;45.116;21.296;2023-05-23T02:31:13;12.13;;;7.03;;
55007;SDS011;40902;45.116;21.296;2023-05-23T02:33:41;10.57;;;6.90;;
55007;SDS011;40902;45.116;21.296;2023-05-23T02:36:07;15.32;;;8.48;;
55007;SDS011;40902;45.116;21.296;2023-05-23T02:38:33;11.40;;;7.90;;
55007;SDS011;40902;45.116;21.296;2023-05-23T02:40:59;11.98;;;7.22;;
55007;SDS011;40902;45.116;21.296;2023-05-23T02:43:25;12.35;;;6.97;;
55007;SDS011;40902;45.116;21.296;2023-05-23T02:45:51;20.33;;;8.93;;
55007;SDS011;40902;45.116;21.296;2023-05-23T02:48:17;10.82;;;7.65;;
55007;SDS011;40902;45.116;21.296;2023-05-23T02:50:43;7.93;;;6.25;;
55007;SDS011;40902;45.116;21.296;2023-05-23T02:53:09;11.10;;;6.10;;
55007;SDS011;40902;45.116;21.296;2023-05-23T02:55:35;11.18;;;6.35;;
55007;SDS011;40902;45.116;21.296;2023-05-23T02:58:02;11.52;;;6.22;;
55007;SDS011;40902;45.116;21.296;2023-05-23T03:00:29;7.93;;;5.65;;
55007;SDS011;40902;45.116;21.296;2023-05-23T03:02:56;11.23;;;6.70;;
55007;SDS011;40902;45.116;21.296;2023-05-23T03:05:22;6.85;;;5.68;;
55007;SDS011;40902;45.116;21.296;2023-05-23T03:07:48;8.55;;;5.65;;
55007;SDS011;40902;45.116;21.296;2023-05-23T03:10:16;8.40;;;6.00;;
55007;SDS011;40902;45.116;21.296;2023-05-23T03:12:42;10.05;;;6.05;;
55007;SDS011;40902;45.116;21.296;2023-05-23T03:15:08;9.20;;;6.03;;
55007;SDS011;40902;45.116;21.296;2023-05-23T03:17:35;9.05;;;5.43;;
55007;SDS011;40902;45.116;21.296;2023-05-23T03:20:01;7.47;;;5.90;;
55007;SDS011;40902;45.116;21.296;2023-05-23T03:22:28;8.18;;;5.60;;
55007;SDS011;40902;45.116;21.296;2023-05-23T03:24:54;8.18;;;5.28;;
55007;SDS011;40902;45.116;21.296;2023-05-23T03:27:20;7.63;;;5.03;;
55007;SDS011;40902;45.116;21.296;2023-05-23T03:29:47;7.82;;;4.75;;
55007;SDS011;40902;45.116;21.296;2023-05-23T03:32:13;6.10;;;5.20;;
55007;SDS011;40902;45.116;21.296;2023-05-23T03:34:39;7.30;;;5.10;;
55007;SDS011;40902;45.116;21.296;2023-05-23T03:37:05;6.68;;;4.65;;
55007;SDS011;40902;45.116;21.296;2023-05-23T03:39:31;7.63;;;5.03;;
55007;SDS011;40902;45.116;21.296;2023-05-23T03:41:57;6.07;;;4.75;;
55007;SDS011;40902;45.116;21.296;2023-05-23T03:44:23;9.70;;;4.63;;
55007;SDS011;40902;45.116;21.296;2023-05-23T03:46:49;8.02;;;5.10;;
55007;SDS011;40902;45.116;21.296;2023-05-23T03:49:15;6.28;;;4.35;;
55007;SDS011;40902;45.116;21.296;2023-05-23T03:51:41;8.63;;;5.05;;
55007;SDS011;40902;45.116;21.296;2023-05-23T03:54:07;6.53;;;4.18;;
55007;SDS011;40902;45.116;21.296;2023-05-23T03:56:33;8.48;;;4.45;;
55007;SDS011;40902;45.116;21.296;2023-05-23T03:58:59;7.53;;;4.70;;
55007;SDS011;40902;45.116;21.296;2023-05-23T04:01:25;8.20;;;4.20;;
55007;SDS011;40902;45.116;21.296;2023-05-23T04:03:52;9.43;;;4.55;;
55007;SDS011;40902;45.116;21.296;2023-05-23T04:06:18;6.50;;;4.90;;
55007;SDS011;40902;45.116;21.296;2023-05-23T04:08:44;6.32;;;4.63;;
55007;SDS011;40902;45.116;21.296;2023-05-23T04:11:10;6.95;;;4.43;;
55007;SDS011;40902;45.116;21.296;2023-05-23T04:13:36;7.35;;;4.40;;
55007;SDS011;40902;45.116;21.296;2023-05-23T04:16:02;5.85;;;4.45;;
55007;SDS011;40902;45.116;21.296;2023-05-23T04:18:32;9.40;;;5.65;;
55007;SDS011;40902;45.116;21.296;2023-05-23T04:20:58;14.75;;;6.20;;
55007;SDS011;40902;45.116;21.296;2023-05-23T04:23:24;11.80;;;6.30;;
55007;SDS011;40902;45.116;21.296;2023-05-23T04:25:50;10.13;;;5.95;;
55007;SDS011;40902;45.116;21.296;2023-05-23T04:28:16;7.05;;;4.70;;
55007;SDS011;40902;45.116;21.296;2023-05-23T04:30:43;9.13;;;4.88;;
55007;SDS011;40902;45.116;21.296;2023-05-23T04:33:09;8.90;;;4.70;;
55007;SDS011;40902;45.116;21.296;2023-05-23T04:35:35;7.97;;;5.20;;
55007;SDS011;40902;45.116;21.296;2023-05-23T04:38:04;10.23;;;5.28;;
55007;SDS011;40902;45.116;21.296;2023-05-23T04:40:30;9.90;;;5.00;;
55007;SDS011;40902;45.116;21.296;2023-05-23T04:42:56;8.30;;;5.25;;
55007;SDS011;40902;45.116;21.296;2023-05-23T04:45:22;9.45;;;4.90;;
55007;SDS011;40902;45.116;21.296;2023-05-23T04:47:48;6.93;;;4.75;;
55007;SDS011;40902;45.116;21.296;2023-05-23T04:50:13;9.85;;;4.68;;
55007;SDS011;40902;45.116;21.296;2023-05-23T04:52:39;8.43;;;5.10;;
55007;SDS011;40902;45.116;21.296;2023-05-23T04:55:05;11.98;;;5.40;;
55007;SDS011;40902;45.116;21.296;2023-05-23T04:57:33;12.95;;;5.20;;
55007;SDS011;40902;45.116;21.296;2023-05-23T04:59:59;13.43;;;5.25;;
55007;SDS011;40902;45.116;21.296;2023-05-23T05:02:25;7.68;;;5.22;;
55007;SDS011;40902;45.116;21.296;2023-05-23T05:04:51;9.85;;;5.30;;
55007;SDS011;40902;45.116;21.296;2023-05-23T05:07:17;7.57;;;4.93;;
55007;SDS011;40902;45.116;21.296;2023-05-23T05:09:43;7.97;;;4.90;;
55007;SDS011;40902;45.116;21.296;2023-05-23T05:12:09;10.73;;;5.30;;
55007;SDS011;40902;45.116;21.296;2023-05-23T05:14:34;8.18;;;4.50;;
55007;SDS011;40902;45.116;21.296;2023-05-23T05:17:01;9.18;;;5.10;;
55007;SDS011;40902;45.116;21.296;2023-05-23T05:19:28;9.38;;;4.82;;
55007;SDS011;40902;45.116;21.296;2023-05-23T05:21:53;9.23;;;4.80;;
55007;SDS011;40902;45.116;21.296;2023-05-23T05:24:19;9.05;;;4.68;;
55007;SDS011;40902;45.116;21.296;2023-05-23T05:26:46;6.80;;;4.55;;
55007;SDS011;40902;45.116;21.296;2023-05-23T05:29:12;6.75;;;4.70;;
55007;SDS011;40902;45.116;21.296;2023-05-23T05:31:38;5.65;;;4.18;;
55007;SDS011;40902;45.116;21.296;2023-05-23T05:34:13;7.88;;;4.68;;
55007;SDS011;40902;45.116;21.296;2023-05-23T05:36:39;10.02;;;4.93;;
55007;SDS011;40902;45.116;21.296;2023-05-23T05:39:10;8.07;;;4.97;;
55007;SDS011;40902;45.116;21.296;2023-05-23T05:41:37;6.75;;;4.32;;
55007;SDS011;40902;45.116;21.296;2023-05-23T05:44:02;7.38;;;4.32;;
55007;SDS011;40902;45.116;21.296;2023-05-23T05:46:28;7.03;;;4.63;;
55007;SDS011;40902;45.116;21.296;2023-05-23T05:48:54;6.75;;;4.20;;
55007;SDS011;40902;45.116;21.296;2023-05-23T05:51:19;5.72;;;4.53;;
55007;SDS011;40902;45.116;21.296;2023-05-23T05:53:45;8.45;;;5.28;;
55007;SDS011;40902;45.116;21.296;2023-05-23T05:56:11;10.73;;;5.57;;
55007;SDS011;40902;45.116;21.296;2023-05-23T05:58:37;11.32;;;5.60;;
55007;SDS011;40902;45.116;21.296;2023-05-23T06:01:03;11.02;;;5.40;;
55007;SDS011;40902;45.116;21.296;2023-05-23T06:03:29;8.38;;;5.20;;
55007;SDS011;40902;45.116;21.296;2023-05-23T06:05:55;7.93;;;5.00;;
55007;SDS011;40902;45.116;21.296;2023-05-23T06:08:21;7.13;;;5.13;;
55007;SDS011;40902;45.116;21.296;2023-05-23T06:10:47;5.45;;;4.40;;
55007;SDS011;40902;45.116;21.296;2023-05-23T06:13:13;6.63;;;4.53;;
55007;SDS011;40902;45.116;21.296;2023-05-23T06:15:38;8.23;;;4.15;;
55007;SDS011;40902;45.116;21.296;2023-05-23T06:18:05;8.32;;;4.57;;
55007;SDS011;40902;45.116;21.296;2023-05-23T06:20:30;10.25;;;4.50;;
55007;SDS011;40902;45.116;21.296;2023-05-23T06:22:56;7.25;;;4.32;;
55007;SDS011;40902;45.116;21.296;2023-05-23T06:25:22;7.03;;;5.00;;
55007;SDS011;40902;45.116;21.296;2023-05-23T06:27:47;7.18;;;3.97;;
55007;SDS011;40902;45.116;21.296;2023-05-23T06:30:14;6.68;;;4.30;;
55007;SDS011;40902;45.116;21.296;2023-05-23T06:32:39;7.22;;;4.75;;
55007;SDS011;40902;45.116;21.296;2023-05-23T06:35:05;10.70;;;4.35;;
55007;SDS011;40902;45.116;21.296;2023-05-23T06:37:31;6.68;;;4.38;;
55007;SDS011;40902;45.116;21.296;2023-05-23T06:39:57;8.25;;;4.15;;
55007;SDS011;40902;45.116;21.296;2023-05-23T06:42:23;8.70;;;4.75;;
55007;SDS011;40902;45.116;21.296;2023-05-23T06:44:48;6.00;;;4.53;;
55007;SDS011;40902;45.116;21.296;2023-05-23T06:47:14;7.18;;;4.75;;
55007;SDS011;40902;45.116;21.296;2023-05-23T06:49:40;5.35;;;4.50;;
55007;SDS011;40902;45.116;21.296;2023-05-23T06:52:05;5.88;;;4.63;;
55007;SDS011;40902;45.116;21.296;2023-05-23T06:54:31;8.43;;;4.65;;
55007;SDS011;40902;45.116;21.296;2023-05-23T06:56:57;6.10;;;4.13;;
55007;SDS011;40902;45.116;21.296;2023-05-23T06:59:22;7.40;;;4.55;;
55007;SDS011;40902;45.116;21.296;2023-05-23T07:01:48;8.35;;;4.75;;
55007;SDS011;40902;45.116;21.296;2023-05-23T07:04:14;6.82;;;4.57;;
55007;SDS011;40902;45.116;21.296;2023-05-23T07:06:39;6.63;;;4.30;;
55007;SDS011;40902;45.116;21.296;2023-05-23T07:09:05;7.40;;;4.80;;
55007;SDS011;40902;45.116;21.296;2023-05-23T07:11:31;7.95;;;4.80;;
55007;SDS011;40902;45.116;21.296;2023-05-23T07:13:57;6.25;;;4.55;;
55007;SDS011;40902;45.116;21.296;2023-05-23T07:16:23;7.00;;;3.92;;
55007;SDS011;40902;45.116;21.296;2023-05-23T07:18:49;11.95;;;4.53;;
55007;SDS011;40902;45.116;21.296;2023-05-23T07:21:14;8.95;;;4.53;;
55007;SDS011;40902;45.116;21.296;2023-05-23T07:23:40;8.43;;;4.63;;
55007;SDS011;40902;45.116;21.296;2023-05-23T07:26:06;8.13;;;5.00;;
55007;SDS011;40902;45.116;21.296;2023-05-23T07:28:33;6.93;;;4.57;;
55007;SDS011;40902;45.116;21.296;2023-05-23T07:31:00;6.53;;;4.55;;
55007;SDS011;40902;45.116;21.296;2023-05-23T07:33:27;5.90;;;4.03;;
55007;SDS011;40902;45.116;21.296;2023-05-23T07:35:53;9.00;;;4.95;;
55007;SDS011;40902;45.116;21.296;2023-05-23T07:38:19;7.32;;;4.50;;
55007;SDS011;40902;45.116;21.296;2023-05-23T07:40:46;9.65;;;5.30;;
55007;SDS011;40902;45.116;21.296;2023-05-23T07:43:12;6.85;;;5.20;;
55007;SDS011;40902;45.116;21.296;2023-05-23T07:45:38;6.97;;;4.88;;
55007;SDS011;40902;45.116;21.296;2023-05-23T07:48:04;8.30;;;4.93;;
55007;SDS011;40902;45.116;21.296;2023-05-23T07:50:30;7.47;;;5.40;;
55007;SDS011;40902;45.116;21.296;2023-05-23T07:52:59;8.40;;;4.75;;
55007;SDS011;40902;45.116;21.296;2023-05-23T07:55:28;8.02;;;5.50;;
55007;SDS011;40902;45.116;21.296;2023-05-23T07:57:54;7.40;;;5.22;;
55007;SDS011;40902;45.116;21.296;2023-05-23T08:00:21;8.68;;;5.35;;
55007;SDS011;40902;45.116;21.296;2023-05-23T08:02:47;7.75;;;5.57;;
55007;SDS011;40902;45.116;21.296;2023-05-23T08:05:14;11.07;;;5.68;;
55007;SDS011;40902;45.116;21.296;2023-05-23T08:07:40;7.00;;;5.50;;
55007;SDS011;40902;45.116;21.296;2023-05-23T08:10:06;8.02;;;5.28;;
55007;SDS011;40902;45.116;21.296;2023-05-23T08:12:32;8.77;;;5.43;;
55007;SDS011;40902;45.116;21.296;2023-05-23T08:14:58;7.65;;;5.47;;
55007;SDS011;40902;45.116;21.296;2023-05-23T08:17:24;6.63;;;5.70;;
55007;SDS011;40902;45.116;21.296;2023-05-23T08:19:51;5.65;;;4.75;;
55007;SDS011;40902;45.116;21.296;2023-05-23T08:22:17;10.38;;;5.65;;
55007;SDS011;40902;45.116;21.296;2023-05-23T08:24:43;6.57;;;5.35;;
55007;SDS011;40902;45.116;21.296;2023-05-23T08:27:09;8.70;;;5.47;;
55007;SDS011;40902;45.116;21.296;2023-05-23T08:29:35;8.45;;;5.68;;
55007;SDS011;40902;45.116;21.296;2023-05-23T08:32:02;7.65;;;5.45;;
55007;SDS011;40902;45.116;21.296;2023-05-23T08:34:28;10.65;;;5.60;;
55007;SDS011;40902;45.116;21.296;2023-05-23T08:36:55;6.30;;;5.40;;
55007;SDS011;40902;45.116;21.296;2023-05-23T08:39:21;7.30;;;5.68;;
55007;SDS011;40902;45.116;21.296;2023-05-23T08:41:47;9.23;;;5.50;;
55007;SDS011;40902;45.116;21.296;2023-05-23T08:44:13;7.53;;;5.18;;
55007;SDS011;40902;45.116;21.296;2023-05-23T08:46:45;11.43;;;5.75;;
55007;SDS011;40902;45.116;21.296;2023-05-23T08:49:13;8.02;;;5.68;;
55007;SDS011;40902;45.116;21.296;2023-05-23T08:51:42;7.70;;;5.72;;
55007;SDS011;40902;45.116;21.296;2023-05-23T08:54:09;6.57;;;5.50;;
55007;SDS011;40902;45.116;21.296;2023-05-23T08:56:38;7.72;;;5.78;;
55007;SDS011;40902;45.116;21.296;2023-05-23T08:59:06;9.18;;;6.40;;
55007;SDS011;40902;45.116;21.296;2023-05-23T09:01:33;6.78;;;5.47;;
55007;SDS011;40902;45.116;21.296;2023-05-23T09:04:04;9.65;;;5.90;;
55007;SDS011;40902;45.116;21.296;2023-05-23T09:06:31;8.35;;;5.97;;
55007;SDS011;40902;45.116;21.296;2023-05-23T09:08:57;8.38;;;5.95;;
55007;SDS011;40902;45.116;21.296;2023-05-23T09:11:23;12.27;;;5.88;;
55007;SDS011;40902;45.116;21.296;2023-05-23T09:13:52;6.93;;;5.72;;
55007;SDS011;40902;45.116;21.296;2023-05-23T09:16:18;8.27;;;5.68;;
55007;SDS011;40902;45.116;21.296;2023-05-23T09:18:45;7.22;;;5.28;;
55007;SDS011;40902;45.116;21.296;2023-05-23T09:21:12;6.70;;;5.85;;
55007;SDS011;40902;45.116;21.296;2023-05-23T09:23:39;7.22;;;5.03;;
55007;SDS011;40902;45.116;21.296;2023-05-23T09:26:07;8.48;;;6.07;;
55007;SDS011;40902;45.116;21.296;2023-05-23T09:28:37;6.93;;;5.78;;
55007;SDS011;40902;45.116;21.296;2023-05-23T09:31:04;7.68;;;5.30;;
55007;SDS011;40902;45.116;21.296;2023-05-23T09:34:04;7.38;;;5.65;;
55007;SDS011;40902;45.116;21.296;2023-05-23T09:36:27;5.45;;;4.35;;
55007;SDS011;40902;45.116;21.296;2023-05-23T09:38:54;7.22;;;5.10;;
55007;SDS011;40902;45.116;21.296;2023-05-23T09:41:20;5.85;;;4.72;;
55007;SDS011;40902;45.116;21.296;2023-05-23T09:46:19;6.90;;;4.63;;
55007;SDS011;40902;45.116;21.296;2023-05-23T09:48:48;7.30;;;4.85;;
55007;SDS011;40902;45.116;21.296;2023-05-23T09:51:17;8.10;;;4.88;;
55007;SDS011;40902;45.116;21.296;2023-05-23T09:53:45;8.10;;;5.20;;
55007;SDS011;40902;45.116;21.296;2023-05-23T09:56:11;6.28;;;4.50;;
55007;SDS011;40902;45.116;21.296;2023-05-23T09:58:37;5.95;;;4.78;;
55007;SDS011;40902;45.116;21.296;2023-05-23T10:01:05;6.90;;;5.38;;
55007;SDS011;40902;45.116;21.296;2023-05-23T10:06:07;6.63;;;4.78;;
55007;SDS011;40902;45.116;21.296;2023-05-23T10:08:37;7.60;;;5.30;;
55007;SDS011;40902;45.116;21.296;2023-05-23T10:13:39;8.55;;;5.30;;
55007;SDS011;40902;45.116;21.296;2023-05-23T10:18:47;8.60;;;6.00;;
55007;SDS011;40902;45.116;21.296;2023-05-23T10:21:15;7.18;;;5.32;;
55007;SDS011;40902;45.116;21.296;2023-05-23T10:23:45;8.52;;;4.97;;
55007;SDS011;40902;45.116;21.296;2023-05-23T10:58:11;11.20;;;7.43;;
55007;SDS011;40902;45.116;21.296;2023-05-23T11:00:46;7.38;;;5.45;;
55007;SDS011;40902;45.116;21.296;2023-05-23T11:03:15;5.57;;;4.45;;
55007;SDS011;40902;45.116;21.296;2023-05-23T11:05:46;6.35;;;4.47;;
55007;SDS011;40902;45.116;21.296;2023-05-23T11:08:13;16.25;;;4.05;;
55007;SDS011;40902;45.116;21.296;2023-05-23T11:11:00;4.95;;;3.67;;
55007;SDS011;40902;45.116;21.296;2023-05-23T11:16:24;4.50;;;3.30;;
55007;SDS011;40902;45.116;21.296;2023-05-23T11:18:51;5.30;;;3.63;;
55007;SDS011;40902;45.116;21.296;2023-05-23T11:21:18;5.72;;;3.65;;
55007;SDS011;40902;45.116;21.296;2023-05-23T11:23:45;6.47;;;3.22;;
55007;SDS011;40902;45.116;21.296;2023-05-23T11:26:32;5.60;;;3.60;;
55007;SDS011;40902;45.116;21.296;2023-05-23T11:28:57;7.00;;;3.30;;
55007;SDS011;40902;45.116;21.296;2023-05-23T11:31:24;5.90;;;3.50;;
55007;SDS011;40902;45.116;21.296;2023-05-23T11:33:50;5.85;;;3.95;;
55007;SDS011;40902;45.116;21.296;2023-05-23T11:36:17;6.35;;;4.10;;
55007;SDS011;40902;45.116;21.296;2023-05-23T11:38:43;7.15;;;4.53;;
55007;SDS011;40902;45.116;21.296;2023-05-23T11:41:09;5.78;;;3.22;;
55007;SDS011;40902;45.116;21.296;2023-05-23T11:43:35;4.80;;;4.05;;
55007;SDS011;40902;45.116;21.296;2023-05-23T11:46:07;6.50;;;4.13;;
55007;SDS011;40902;45.116;21.296;2023-05-23T11:48:33;4.75;;;3.63;;
55007;SDS011;40902;45.116;21.296;2023-05-23T11:51:00;9.23;;;4.53;;
55007;SDS011;40902;45.116;21.296;2023-05-23T11:53:26;6.72;;;4.50;;
55007;SDS011;40902;45.116;21.296;2023-05-23T11:58:20;11.73;;;6.28;;
55007;SDS011;40902;45.116;21.296;2023-05-23T12:00:51;6.00;;;4.30;;
55007;SDS011;40902;45.116;21.296;2023-05-23T12:03:17;8.32;;;4.63;;
55007;SDS011;40902;45.116;21.296;2023-05-23T12:05:43;5.82;;;4.07;;
55007;SDS011;40902;45.116;21.296;2023-05-23T12:08:12;6.60;;;4.30;;
55007;SDS011;40902;45.116;21.296;2023-05-23T12:10:47;6.22;;;3.95;;
55007;SDS011;40902;45.116;21.296;2023-05-23T12:13:13;6.85;;;3.90;;
55007;SDS011;40902;45.116;21.296;2023-05-23T12:15:39;10.25;;;4.47;;
55007;SDS011;40902;45.116;21.296;2023-05-23T12:18:05;8.40;;;4.47;;
55007;SDS011;40902;45.116;21.296;2023-05-23T12:20:32;7.07;;;4.85;;
55007;SDS011;40902;45.116;21.296;2023-05-23T12:23:04;7.65;;;4.47;;
55007;SDS011;40902;45.116;21.296;2023-05-23T12:25:37;7.28;;;5.05;;
55007;SDS011;40902;45.116;21.296;2023-05-23T12:28:06;5.75;;;4.55;;
55007;SDS011;40902;45.116;21.296;2023-05-23T12:30:50;7.95;;;4.43;;
55007;SDS011;40902;45.116;21.296;2023-05-23T12:33:17;5.82;;;3.65;;
55007;SDS011;40902;45.116;21.296;2023-05-23T12:35:43;6.43;;;4.13;;
55007;SDS011;40902;45.116;21.296;2023-05-23T12:38:13;6.65;;;3.78;;
55007;SDS011;40902;45.116;21.296;2023-05-23T12:40:41;6.75;;;3.33;;
55007;SDS011;40902;45.116;21.296;2023-05-23T12:43:08;4.18;;;3.10;;
55007;SDS011;40902;45.116;21.296;2023-05-23T12:45:35;4.30;;;2.72;;
55007;SDS011;40902;45.116;21.296;2023-05-23T12:48:01;6.43;;;3.97;;
55007;SDS011;40902;45.116;21.296;2023-05-23T12:50:28;4.38;;;2.40;;
55007;SDS011;40902;45.116;21.296;2023-05-23T12:52:55;5.00;;;3.08;;
55007;SDS011;40902;45.116;21.296;2023-05-23T12:55:21;5.60;;;3.28;;
55007;SDS011;40902;45.116;21.296;2023-05-23T12:57:47;4.22;;;3.03;;
55007;SDS011;40902;45.116;21.296;2023-05-23T13:00:16;6.13;;;2.97;;
55007;SDS011;40902;45.116;21.296;2023-05-23T13:02:43;4.43;;;2.90;;
55007;SDS011;40902;45.116;21.296;2023-05-23T13:05:09;8.02;;;4.10;;
55007;SDS011;40902;45.116;21.296;2023-05-23T13:07:38;5.15;;;3.20;;
55007;SDS011;40902;45.116;21.296;2023-05-23T13:10:06;6.30;;;3.28;;
55007;SDS011;40902;45.116;21.296;2023-05-23T13:12:33;5.07;;;3.50;;
55007;SDS011;40902;45.116;21.296;2023-05-23T13:14:59;6.07;;;3.38;;
55007;SDS011;40902;45.116;21.296;2023-05-23T13:17:25;4.43;;;3.45;;
55007;SDS011;40902;45.116;21.296;2023-05-23T13:19:56;6.55;;;4.10;;
55007;SDS011;40902;45.116;21.296;2023-05-23T13:22:22;6.25;;;4.60;;
55007;SDS011;40902;45.116;21.296;2023-05-23T13:24:48;5.72;;;3.58;;
55007;SDS011;40902;45.116;21.296;2023-05-23T13:27:14;3.65;;;3.22;;
55007;SDS011;40902;45.116;21.296;2023-05-23T13:29:40;6.57;;;3.45;;
55007;SDS011;40902;45.116;21.296;2023-05-23T13:32:07;4.60;;;3.28;;
55007;SDS011;40902;45.116;21.296;2023-05-23T13:34:33;4.10;;;3.47;;
55007;SDS011;40902;45.116;21.296;2023-05-23T13:37:01;5.45;;;4.18;;
55007;SDS011;40902;45.116;21.296;2023-05-23T13:39:27;6.72;;;3.88;;
55007;SDS011;40902;45.116;21.296;2023-05-23T13:41:53;5.63;;;4.10;;
55007;SDS011;40902;45.116;21.296;2023-05-23T13:44:20;6.22;;;3.70;;
55007;SDS011;40902;45.116;21.296;2023-05-23T13:46:46;10.05;;;4.20;;
55007;SDS011;40902;45.116;21.296;2023-05-23T13:49:17;4.25;;;3.67;;
55007;SDS011;40902;45.116;21.296;2023-05-23T13:51:43;6.10;;;4.13;;
55007;SDS011;40902;45.116;21.296;2023-05-23T13:54:09;5.95;;;3.70;;
55007;SDS011;40902;45.116;21.296;2023-05-23T13:56:38;6.95;;;3.92;;
55007;SDS011;40902;45.116;21.296;2023-05-23T13:59:04;6.88;;;3.60;;
55007;SDS011;40902;45.116;21.296;2023-05-23T14:01:30;7.75;;;4.00;;
55007;SDS011;40902;45.116;21.296;2023-05-23T14:03:57;5.47;;;4.10;;
55007;SDS011;40902;45.116;21.296;2023-05-23T14:06:23;5.38;;;3.70;;
55007;SDS011;40902;45.116;21.296;2023-05-23T14:08:49;5.20;;;3.60;;
55007;SDS011;40902;45.116;21.296;2023-05-23T14:11:15;4.30;;;3.50;;
55007;SDS011;40902;45.116;21.296;2023-05-23T14:13:41;5.32;;;3.58;;
55007;SDS011;40902;45.116;21.296;2023-05-23T14:16:07;5.80;;;4.00;;
55007;SDS011;40902;45.116;21.296;2023-05-23T14:18:33;5.38;;;3.70;;
55007;SDS011;40902;45.116;21.296;2023-05-23T14:20:59;6.57;;;4.10;;
55007;SDS011;40902;45.116;21.296;2023-05-23T14:23:25;5.75;;;4.28;;
55007;SDS011;40902;45.116;21.296;2023-05-23T14:25:52;5.82;;;4.03;;
55007;SDS011;40902;45.116;21.296;2023-05-23T14:28:18;5.30;;;4.07;;
55007;SDS011;40902;45.116;21.296;2023-05-23T14:30:44;5.53;;;3.78;;
55007;SDS011;40902;45.116;21.296;2023-05-23T14:33:10;7.18;;;4.00;;
55007;SDS011;40902;45.116;21.296;2023-05-23T14:35:36;5.30;;;3.72;;
55007;SDS011;40902;45.116;21.296;2023-05-23T14:38:03;6.22;;;3.95;;
55007;SDS011;40902;45.116;21.296;2023-05-23T14:40:29;4.55;;;3.65;;
55007;SDS011;40902;45.116;21.296;2023-05-23T14:42:55;6.18;;;3.80;;
55007;SDS011;40902;45.116;21.296;2023-05-23T14:45:21;5.03;;;3.88;;
55007;SDS011;40902;45.116;21.296;2023-05-23T14:47:48;6.10;;;4.40;;
55007;SDS011;40902;45.116;21.296;2023-05-23T14:50:16;7.10;;;4.13;;
55007;SDS011;40902;45.116;21.296;2023-05-23T14:52:43;7.95;;;4.50;;
55007;SDS011;40902;45.116;21.296;2023-05-23T14:55:09;6.63;;;4.10;;
55007;SDS011;40902;45.116;21.296;2023-05-23T14:57:36;7.30;;;4.00;;
55007;SDS011;40902;45.116;21.296;2023-05-23T15:00:02;5.63;;;4.30;;
55007;SDS011;40902;45.116;21.296;2023-05-23T15:02:32;5.85;;;4.47;;
55007;SDS011;40902;45.116;21.296;2023-05-23T15:04:58;8.07;;;4.20;;
55007;SDS011;40902;45.116;21.296;2023-05-23T15:07:24;6.43;;;4.43;;
55007;SDS011;40902;45.116;21.296;2023-05-23T15:09:51;5.50;;;3.65;;
55007;SDS011;40902;45.116;21.296;2023-05-23T15:12:17;6.75;;;4.18;;
55007;SDS011;40902;45.116;21.296;2023-05-23T15:14:43;9.05;;;4.15;;
55007;SDS011;40902;45.116;21.296;2023-05-23T15:17:09;6.47;;;4.15;;
55007;SDS011;40902;45.116;21.296;2023-05-23T15:19:37;4.68;;;3.85;;
55007;SDS011;40902;45.116;21.296;2023-05-23T15:22:06;6.60;;;3.80;;
55007;SDS011;40902;45.116;21.296;2023-05-23T15:24:32;7.55;;;4.07;;
55007;SDS011;40902;45.116;21.296;2023-05-23T15:26:58;6.78;;;4.07;;
55007;SDS011;40902;45.116;21.296;2023-05-23T15:29:24;6.43;;;3.60;;